SVA341 OEJN-DAAG
Flight info
| Callsign | SVA341 |
|---|---|
| Flight time | N/A |
| Altitude | 40000 |
| Route | BOMOX2W/34C BOMOX M686 OTEMO T55 KUNKI P751 METRU UP868 ARLOS DCT OMENI UL874 DIMAO UZ888 BABOR UA31 ALR |
| Aircraft | B77W/H-SDE2E3FGHIRWXY/L |
Departure
| Time | N/A |
|---|---|
| Airport | King Abdulaziz International Airport (OEJN) |
Arrival
| Time | 2026-05-07 20:56 |
|---|---|
| Airport | Houari Boumediene Airport (DAAG) |
| Time | Latitude | Longitude | Altitude | Speed | Heading |
|---|---|---|---|---|---|
| 2026-05-07 20:56 | 36.69357 | 3.17802 | 70 ft | 21 kts | 92° |
| 2026-05-07 20:56 | 36.69353 | 3.17986 | 76 ft | 22 kts | 91° |
| 2026-05-07 20:56 | 36.69348 | 3.18180 | 68 ft | 23 kts | 92° |
| 2026-05-07 20:56 | 36.69343 | 3.18358 | 76 ft | 22 kts | 91° |
| 2026-05-07 20:57 | 36.69338 | 3.18549 | 76 ft | 22 kts | 93° |
| 2026-05-07 20:57 | 36.69334 | 3.18741 | 68 ft | 23 kts | 91° |
| 2026-05-07 20:57 | 36.69331 | 3.18946 | 69 ft | 24 kts | 91° |
| 2026-05-07 20:57 | 36.69325 | 3.19133 | 73 ft | 25 kts | 91° |
| 2026-05-07 20:58 | 36.69323 | 3.19330 | 68 ft | 16 kts | 83° |
| 2026-05-07 20:58 | 36.69368 | 3.19380 | 67 ft | 0 kts | 32° |
| 2026-05-07 20:58 | 36.69373 | 3.19385 | 68 ft | 2 kts | 32° |
| 2026-05-07 20:58 | 36.69396 | 3.19403 | 67 ft | 5 kts | 34° |
| 2026-05-07 20:59 | 36.69424 | 3.19447 | 68 ft | 8 kts | 65° |
| 2026-05-07 20:59 | 36.69433 | 3.19528 | 68 ft | 12 kts | 89° |
| 2026-05-07 20:59 | 36.69396 | 3.19632 | 64 ft | 15 kts | 150° |
| 2026-05-07 20:59 | 36.69317 | 3.19710 | 67 ft | 18 kts | 102° |
| 2026-05-07 21:00 | 36.69319 | 3.19866 | 75 ft | 20 kts | 60° |
| 2026-05-07 21:00 | 36.69375 | 3.19898 | 67 ft | 2 kts | 359° |
| 2026-05-07 21:00 | 36.69409 | 3.19901 | 67 ft | 8 kts | 9° |
| 2026-05-07 21:00 | 36.69451 | 3.19959 | 67 ft | 12 kts | 70° |
| 2026-05-07 21:01 | 36.69454 | 3.20085 | 75 ft | 17 kts | 91° |
| 2026-05-07 21:01 | 36.69449 | 3.20259 | 66 ft | 23 kts | 92° |
| 2026-05-07 21:01 | 36.69477 | 3.20368 | 69 ft | 13 kts | 41° |
| 2026-05-07 21:01 | 36.69569 | 3.20372 | 67 ft | 12 kts | 9° |
| 2026-05-07 21:02 | 36.69602 | 3.20448 | 69 ft | 15 kts | 78° |
| 2026-05-07 21:02 | 36.69612 | 3.20562 | 64 ft | 4 kts | 48° |
| 2026-05-07 21:02 | 36.69639 | 3.20575 | 64 ft | 6 kts | 21° |
| 2026-05-07 21:02 | 36.69664 | 3.20586 | 69 ft | 3 kts | 19° |
| 2026-05-07 21:03 | 36.69675 | 3.20591 | 66 ft | 2 kts | 19° |
| 2026-05-07 21:03 | 36.69677 | 3.20592 | 66 ft | 0 kts | 19° |